sensor_id;sensor_type;location;lat;lon;timestamp;P1;durP1;ratioP1;P2;durP2;ratioP2
29568;SDS011;16501;51.462;14.346;2022-09-01T00:02:13;2.33;;;1.45;;
29568;SDS011;16501;51.462;14.346;2022-09-01T00:04:41;2.47;;;1.48;;
29568;SDS011;16501;51.462;14.346;2022-09-01T00:07:10;8.43;;;1.73;;
29568;SDS011;16501;51.462;14.346;2022-09-01T00:09:37;2.25;;;1.70;;
29568;SDS011;16501;51.462;14.346;2022-09-01T00:12:03;3.53;;;1.33;;
29568;SDS011;16501;51.462;14.346;2022-09-01T00:14:32;3.75;;;1.70;;
29568;SDS011;16501;51.462;14.346;2022-09-01T00:17:03;8.20;;;1.80;;
29568;SDS011;16501;51.462;14.346;2022-09-01T00:19:40;2.80;;;1.88;;
29568;SDS011;16501;51.462;14.346;2022-09-01T00:22:06;5.03;;;1.80;;
29568;SDS011;16501;51.462;14.346;2022-09-01T00:24:32;9.20;;;2.08;;
29568;SDS011;16501;51.462;14.346;2022-09-01T00:26:57;1.90;;;1.50;;
29568;SDS011;16501;51.462;14.346;2022-09-01T00:29:24;6.22;;;1.60;;
29568;SDS011;16501;51.462;14.346;2022-09-01T00:31:50;5.00;;;1.77;;
29568;SDS011;16501;51.462;14.346;2022-09-01T00:34:16;2.90;;;1.63;;
29568;SDS011;16501;51.462;14.346;2022-09-01T00:36:43;3.30;;;1.63;;
29568;SDS011;16501;51.462;14.346;2022-09-01T00:39:08;3.80;;;1.83;;
29568;SDS011;16501;51.462;14.346;2022-09-01T00:41:35;3.72;;;1.67;;
29568;SDS011;16501;51.462;14.346;2022-09-01T00:44:04;3.25;;;1.90;;
29568;SDS011;16501;51.462;14.346;2022-09-01T00:46:33;5.40;;;1.85;;
29568;SDS011;16501;51.462;14.346;2022-09-01T00:49:06;6.35;;;1.75;;
29568;SDS011;16501;51.462;14.346;2022-09-01T00:51:34;4.10;;;1.63;;
29568;SDS011;16501;51.462;14.346;2022-09-01T00:54:02;6.65;;;1.67;;
29568;SDS011;16501;51.462;14.346;2022-09-01T00:56:31;3.30;;;1.95;;
29568;SDS011;16501;51.462;14.346;2022-09-01T00:59:02;8.73;;;1.95;;
29568;SDS011;16501;51.462;14.346;2022-09-01T01:01:30;7.32;;;3.38;;
29568;SDS011;16501;51.462;14.346;2022-09-01T01:03:55;7.22;;;1.90;;
29568;SDS011;16501;51.462;14.346;2022-09-01T01:06:24;6.53;;;2.38;;
29568;SDS011;16501;51.462;14.346;2022-09-01T01:08:53;9.13;;;2.38;;
29568;SDS011;16501;51.462;14.346;2022-09-01T01:11:23;3.45;;;2.00;;
29568;SDS011;16501;51.462;14.346;2022-09-01T01:14:02;3.90;;;1.83;;
29568;SDS011;16501;51.462;14.346;2022-09-01T01:16:36;5.28;;;1.75;;
29568;SDS011;16501;51.462;14.346;2022-09-01T01:25:40;4.72;;;1.60;;
29568;SDS011;16501;51.462;14.346;2022-09-01T01:30:34;10.13;;;2.30;;
29568;SDS011;16501;51.462;14.346;2022-09-01T01:33:01;2.15;;;1.50;;
29568;SDS011;16501;51.462;14.346;2022-09-01T01:35:27;6.97;;;2.25;;
29568;SDS011;16501;51.462;14.346;2022-09-01T01:37:55;3.72;;;1.77;;
29568;SDS011;16501;51.462;14.346;2022-09-01T01:40:21;3.97;;;1.90;;
29568;SDS011;16501;51.462;14.346;2022-09-01T01:42:48;10.65;;;1.80;;
29568;SDS011;16501;51.462;14.346;2022-09-01T01:45:17;8.45;;;2.22;;
29568;SDS011;16501;51.462;14.346;2022-09-01T01:47:47;5.22;;;1.83;;
29568;SDS011;16501;51.462;14.346;2022-09-01T01:50:17;5.78;;;1.90;;
29568;SDS011;16501;51.462;14.346;2022-09-01T01:52:46;3.65;;;1.77;;
29568;SDS011;16501;51.462;14.346;2022-09-01T01:55:12;4.10;;;1.98;;
29568;SDS011;16501;51.462;14.346;2022-09-01T01:57:39;5.90;;;1.77;;
29568;SDS011;16501;51.462;14.346;2022-09-01T02:00:05;3.50;;;1.83;;
29568;SDS011;16501;51.462;14.346;2022-09-01T02:02:31;4.10;;;1.83;;
29568;SDS011;16501;51.462;14.346;2022-09-01T02:04:57;3.63;;;1.75;;
29568;SDS011;16501;51.462;14.346;2022-09-01T02:07:23;3.63;;;1.90;;
29568;SDS011;16501;51.462;14.346;2022-09-01T02:09:48;8.63;;;2.15;;
29568;SDS011;16501;51.462;14.346;2022-09-01T02:12:14;2.58;;;1.55;;
29568;SDS011;16501;51.462;14.346;2022-09-01T02:14:43;4.65;;;1.80;;
29568;SDS011;16501;51.462;14.346;2022-09-01T02:17:08;4.28;;;1.85;;
29568;SDS011;16501;51.462;14.346;2022-09-01T02:19:34;3.30;;;1.95;;
29568;SDS011;16501;51.462;14.346;2022-09-01T02:22:04;4.13;;;1.70;;
29568;SDS011;16501;51.462;14.346;2022-09-01T02:24:30;2.30;;;1.70;;
29568;SDS011;16501;51.462;14.346;2022-09-01T02:26:57;5.15;;;1.80;;
29568;SDS011;16501;51.462;14.346;2022-09-01T02:29:24;2.58;;;1.65;;
29568;SDS011;16501;51.462;14.346;2022-09-01T02:31:54;3.35;;;2.00;;
29568;SDS011;16501;51.462;14.346;2022-09-01T02:34:20;3.28;;;2.00;;
29568;SDS011;16501;51.462;14.346;2022-09-01T02:36:49;3.20;;;2.03;;
29568;SDS011;16501;51.462;14.346;2022-09-01T02:39:26;4.63;;;1.95;;
29568;SDS011;16501;51.462;14.346;2022-09-01T02:41:57;3.70;;;1.80;;
29568;SDS011;16501;51.462;14.346;2022-09-01T02:44:24;3.35;;;1.65;;
29568;SDS011;16501;51.462;14.346;2022-09-01T02:46:51;4.45;;;2.00;;
29568;SDS011;16501;51.462;14.346;2022-09-01T02:49:18;15.20;;;2.10;;
29568;SDS011;16501;51.462;14.346;2022-09-01T02:51:50;5.75;;;2.72;;
29568;SDS011;16501;51.462;14.346;2022-09-01T02:54:18;4.60;;;1.70;;
29568;SDS011;16501;51.462;14.346;2022-09-01T02:56:46;4.68;;;1.50;;
29568;SDS011;16501;51.462;14.346;2022-09-01T02:59:15;2.00;;;1.80;;
29568;SDS011;16501;51.462;14.346;2022-09-01T03:01:42;3.35;;;1.80;;
29568;SDS011;16501;51.462;14.346;2022-09-01T03:04:13;3.15;;;2.25;;
29568;SDS011;16501;51.462;14.346;2022-09-01T03:06:39;3.65;;;1.73;;
29568;SDS011;16501;51.462;14.346;2022-09-01T03:09:05;3.25;;;1.80;;
29568;SDS011;16501;51.462;14.346;2022-09-01T03:11:34;2.78;;;1.77;;
29568;SDS011;16501;51.462;14.346;2022-09-01T03:14:02;4.72;;;1.70;;
29568;SDS011;16501;51.462;14.346;2022-09-01T03:16:29;5.38;;;2.00;;
29568;SDS011;16501;51.462;14.346;2022-09-01T03:18:54;7.95;;;1.65;;
29568;SDS011;16501;51.462;14.346;2022-09-01T03:21:20;4.25;;;2.35;;
29568;SDS011;16501;51.462;14.346;2022-09-01T03:23:47;4.47;;;2.03;;
29568;SDS011;16501;51.462;14.346;2022-09-01T03:26:15;2.80;;;1.88;;
29568;SDS011;16501;51.462;14.346;2022-09-01T03:28:44;8.55;;;2.05;;
29568;SDS011;16501;51.462;14.346;2022-09-01T03:31:10;6.53;;;2.08;;
29568;SDS011;16501;51.462;14.346;2022-09-01T03:33:36;4.68;;;2.25;;
29568;SDS011;16501;51.462;14.346;2022-09-01T03:36:02;4.28;;;1.92;;
29568;SDS011;16501;51.462;14.346;2022-09-01T03:38:29;4.20;;;2.10;;
29568;SDS011;16501;51.462;14.346;2022-09-01T03:41:01;3.88;;;2.20;;
29568;SDS011;16501;51.462;14.346;2022-09-01T03:43:30;5.65;;;2.30;;
29568;SDS011;16501;51.462;14.346;2022-09-01T03:45:58;6.20;;;2.17;;
29568;SDS011;16501;51.462;14.346;2022-09-01T03:48:25;4.72;;;2.40;;
29568;SDS011;16501;51.462;14.346;2022-09-01T03:50:54;8.80;;;2.50;;
29568;SDS011;16501;51.462;14.346;2022-09-01T03:53:25;6.45;;;2.20;;
29568;SDS011;16501;51.462;14.346;2022-09-01T03:55:51;9.63;;;2.17;;
29568;SDS011;16501;51.462;14.346;2022-09-01T03:58:19;4.18;;;1.90;;
29568;SDS011;16501;51.462;14.346;2022-09-01T04:00:51;5.68;;;2.08;;
29568;SDS011;16501;51.462;14.346;2022-09-01T04:03:23;6.25;;;1.92;;
29568;SDS011;16501;51.462;14.346;2022-09-01T04:05:52;2.63;;;1.90;;
29568;SDS011;16501;51.462;14.346;2022-09-01T04:08:19;4.65;;;2.38;;
29568;SDS011;16501;51.462;14.346;2022-09-01T04:10:53;6.28;;;2.05;;
29568;SDS011;16501;51.462;14.346;2022-09-01T04:13:19;5.70;;;1.95;;
29568;SDS011;16501;51.462;14.346;2022-09-01T04:15:50;4.63;;;2.10;;
29568;SDS011;16501;51.462;14.346;2022-09-01T04:18:16;3.90;;;2.10;;
29568;SDS011;16501;51.462;14.346;2022-09-01T04:20:51;4.00;;;2.05;;
29568;SDS011;16501;51.462;14.346;2022-09-01T04:23:28;3.25;;;1.75;;
29568;SDS011;16501;51.462;14.346;2022-09-01T04:28:41;3.55;;;2.05;;
29568;SDS011;16501;51.462;14.346;2022-09-01T04:31:10;4.80;;;2.17;;
29568;SDS011;16501;51.462;14.346;2022-09-01T04:33:43;3.05;;;1.92;;
29568;SDS011;16501;51.462;14.346;2022-09-01T04:38:47;5.00;;;2.10;;
29568;SDS011;16501;51.462;14.346;2022-09-01T04:41:22;5.53;;;2.15;;
29568;SDS011;16501;51.462;14.346;2022-09-01T04:43:50;5.57;;;2.20;;
29568;SDS011;16501;51.462;14.346;2022-09-01T04:46:17;5.68;;;2.38;;
29568;SDS011;16501;51.462;14.346;2022-09-01T04:48:45;3.25;;;1.80;;
29568;SDS011;16501;51.462;14.346;2022-09-01T04:51:11;3.90;;;2.13;;
29568;SDS011;16501;51.462;14.346;2022-09-01T04:53:39;5.22;;;2.42;;
29568;SDS011;16501;51.462;14.346;2022-09-01T04:56:07;7.15;;;2.15;;
29568;SDS011;16501;51.462;14.346;2022-09-01T04:58:35;3.72;;;2.00;;
29568;SDS011;16501;51.462;14.346;2022-09-01T05:01:01;3.90;;;2.35;;
29568;SDS011;16501;51.462;14.346;2022-09-01T05:03:39;3.15;;;1.92;;
29568;SDS011;16501;51.462;14.346;2022-09-01T05:06:11;4.00;;;2.03;;
29568;SDS011;16501;51.462;14.346;2022-09-01T05:08:37;4.55;;;2.17;;
29568;SDS011;16501;51.462;14.346;2022-09-01T05:11:05;4.32;;;1.83;;
29568;SDS011;16501;51.462;14.346;2022-09-01T05:13:35;4.45;;;1.65;;
29568;SDS011;16501;51.462;14.346;2022-09-01T05:16:05;3.33;;;1.90;;
29568;SDS011;16501;51.462;14.346;2022-09-01T05:18:36;7.82;;;2.00;;
29568;SDS011;16501;51.462;14.346;2022-09-01T05:21:14;4.68;;;1.80;;
29568;SDS011;16501;51.462;14.346;2022-09-01T05:23:43;6.65;;;2.17;;
29568;SDS011;16501;51.462;14.346;2022-09-01T05:26:13;3.70;;;2.05;;
29568;SDS011;16501;51.462;14.346;2022-09-01T05:28:48;6.15;;;2.00;;
29568;SDS011;16501;51.462;14.346;2022-09-01T05:31:18;3.28;;;2.00;;
29568;SDS011;16501;51.462;14.346;2022-09-01T05:33:45;5.07;;;2.00;;
29568;SDS011;16501;51.462;14.346;2022-09-01T05:36:12;6.45;;;1.85;;
29568;SDS011;16501;51.462;14.346;2022-09-01T05:38:39;3.30;;;2.00;;
29568;SDS011;16501;51.462;14.346;2022-09-01T05:41:06;5.47;;;2.17;;
29568;SDS011;16501;51.462;14.346;2022-09-01T05:43:34;2.95;;;2.00;;
29568;SDS011;16501;51.462;14.346;2022-09-01T05:46:04;3.15;;;1.73;;
29568;SDS011;16501;51.462;14.346;2022-09-01T05:48:30;3.35;;;2.10;;
29568;SDS011;16501;51.462;14.346;2022-09-01T05:51:03;7.28;;;1.90;;
29568;SDS011;16501;51.462;14.346;2022-09-01T05:53:33;3.72;;;1.88;;
29568;SDS011;16501;51.462;14.346;2022-09-01T05:55:59;2.47;;;1.70;;
29568;SDS011;16501;51.462;14.346;2022-09-01T05:58:31;4.07;;;2.13;;
29568;SDS011;16501;51.462;14.346;2022-09-01T06:00:58;2.80;;;1.58;;
29568;SDS011;16501;51.462;14.346;2022-09-01T06:03:24;2.67;;;1.88;;
29568;SDS011;16501;51.462;14.346;2022-09-01T06:05:52;3.03;;;1.60;;
29568;SDS011;16501;51.462;14.346;2022-09-01T06:08:19;5.15;;;2.03;;
29568;SDS011;16501;51.462;14.346;2022-09-01T06:10:47;3.75;;;2.10;;
29568;SDS011;16501;51.462;14.346;2022-09-01T06:13:14;3.95;;;2.25;;
29568;SDS011;16501;51.462;14.346;2022-09-01T06:15:41;3.28;;;2.03;;
29568;SDS011;16501;51.462;14.346;2022-09-01T06:18:09;4.60;;;1.85;;
29568;SDS011;16501;51.462;14.346;2022-09-01T06:20:40;6.00;;;1.88;;
29568;SDS011;16501;51.462;14.346;2022-09-01T06:23:08;4.95;;;1.95;;
29568;SDS011;16501;51.462;14.346;2022-09-01T06:25:37;7.80;;;2.15;;
29568;SDS011;16501;51.462;14.346;2022-09-01T06:28:03;3.78;;;1.80;;
29568;SDS011;16501;51.462;14.346;2022-09-01T06:30:29;3.80;;;1.95;;
29568;SDS011;16501;51.462;14.346;2022-09-01T06:32:56;4.13;;;2.00;;
29568;SDS011;16501;51.462;14.346;2022-09-01T06:35:25;4.03;;;1.80;;
29568;SDS011;16501;51.462;14.346;2022-09-01T06:37:55;6.60;;;1.90;;
29568;SDS011;16501;51.462;14.346;2022-09-01T06:40:24;4.50;;;2.50;;
29568;SDS011;16501;51.462;14.346;2022-09-01T06:42:50;5.13;;;2.15;;
29568;SDS011;16501;51.462;14.346;2022-09-01T06:45:19;8.02;;;2.70;;
29568;SDS011;16501;51.462;14.346;2022-09-01T06:47:46;5.32;;;2.15;;
29568;SDS011;16501;51.462;14.346;2022-09-01T06:50:16;2.63;;;2.00;;
29568;SDS011;16501;51.462;14.346;2022-09-01T06:52:43;3.65;;;2.30;;
29568;SDS011;16501;51.462;14.346;2022-09-01T06:55:09;6.15;;;2.50;;
29568;SDS011;16501;51.462;14.346;2022-09-01T06:57:36;6.38;;;2.40;;
29568;SDS011;16501;51.462;14.346;2022-09-01T07:00:14;2.72;;;1.98;;
29568;SDS011;16501;51.462;14.346;2022-09-01T07:02:45;4.88;;;2.13;;
29568;SDS011;16501;51.462;14.346;2022-09-01T07:05:14;7.35;;;2.22;;
29568;SDS011;16501;51.462;14.346;2022-09-01T07:07:50;4.35;;;2.08;;
29568;SDS011;16501;51.462;14.346;2022-09-01T07:10:23;3.88;;;1.85;;
29568;SDS011;16501;51.462;14.346;2022-09-01T07:12:51;4.07;;;2.20;;
29568;SDS011;16501;51.462;14.346;2022-09-01T07:15:19;7.35;;;2.60;;
29568;SDS011;16501;51.462;14.346;2022-09-01T07:17:55;5.10;;;2.30;;
29568;SDS011;16501;51.462;14.346;2022-09-01T07:20:22;4.00;;;2.00;;
29568;SDS011;16501;51.462;14.346;2022-09-01T07:22:50;4.28;;;2.65;;
29568;SDS011;16501;51.462;14.346;2022-09-01T07:25:18;3.58;;;2.10;;
29568;SDS011;16501;51.462;14.346;2022-09-01T07:27:44;5.97;;;2.08;;
29568;SDS011;16501;51.462;14.346;2022-09-01T07:30:15;5.85;;;2.42;;
29568;SDS011;16501;51.462;14.346;2022-09-01T07:32:42;3.20;;;2.38;;
29568;SDS011;16501;51.462;14.346;2022-09-01T07:35:11;8.65;;;2.67;;
29568;SDS011;16501;51.462;14.346;2022-09-01T07:37:38;4.93;;;2.47;;
29568;SDS011;16501;51.462;14.346;2022-09-01T07:40:05;5.57;;;2.22;;
29568;SDS011;16501;51.462;14.346;2022-09-01T07:42:32;10.02;;;2.78;;
29568;SDS011;16501;51.462;14.346;2022-09-01T07:44:58;4.60;;;2.80;;
29568;SDS011;16501;51.462;14.346;2022-09-01T07:47:25;3.63;;;2.17;;
29568;SDS011;16501;51.462;14.346;2022-09-01T07:49:53;8.68;;;2.70;;
29568;SDS011;16501;51.462;14.346;2022-09-01T07:52:20;5.88;;;2.50;;
29568;SDS011;16501;51.462;14.346;2022-09-01T07:54:45;5.78;;;2.22;;
29568;SDS011;16501;51.462;14.346;2022-09-01T07:57:11;5.63;;;2.45;;
29568;SDS011;16501;51.462;14.346;2022-09-01T07:59:38;4.85;;;2.72;;
29568;SDS011;16501;51.462;14.346;2022-09-01T08:02:05;3.38;;;2.08;;
29568;SDS011;16501;51.462;14.346;2022-09-01T08:04:31;5.30;;;2.75;;
29568;SDS011;16501;51.462;14.346;2022-09-01T08:06:57;3.78;;;2.13;;
29568;SDS011;16501;51.462;14.346;2022-09-01T08:09:24;5.32;;;2.55;;
29568;SDS011;16501;51.462;14.346;2022-09-01T08:11:49;4.95;;;2.30;;
29568;SDS011;16501;51.462;14.346;2022-09-01T08:14:14;5.43;;;2.80;;
29568;SDS011;16501;51.462;14.346;2022-09-01T08:16:40;5.18;;;2.78;;
29568;SDS011;16501;51.462;14.346;2022-09-01T08:19:05;11.30;;;2.80;;
29568;SDS011;16501;51.462;14.346;2022-09-01T08:21:31;5.78;;;2.40;;
29568;SDS011;16501;51.462;14.346;2022-09-01T08:23:56;5.47;;;2.40;;
29568;SDS011;16501;51.462;14.346;2022-09-01T08:26:22;7.57;;;2.95;;
29568;SDS011;16501;51.462;14.346;2022-09-01T08:28:49;6.57;;;2.55;;
29568;SDS011;16501;51.462;14.346;2022-09-01T08:31:16;4.30;;;2.38;;
29568;SDS011;16501;51.462;14.346;2022-09-01T08:33:44;7.25;;;2.97;;
29568;SDS011;16501;51.462;14.346;2022-09-01T08:36:12;12.13;;;2.90;;
29568;SDS011;16501;51.462;14.346;2022-09-01T08:38:39;4.75;;;2.38;;
29568;SDS011;16501;51.462;14.346;2022-09-01T08:41:12;6.45;;;2.60;;
29568;SDS011;16501;51.462;14.346;2022-09-01T08:47:09;8.77;;;2.97;;
29568;SDS011;16501;51.462;14.346;2022-09-01T08:49:37;4.93;;;2.35;;
29568;SDS011;16501;51.462;14.346;2022-09-01T08:57:35;4.65;;;3.03;;
29568;SDS011;16501;51.462;14.346;2022-09-01T09:00:04;8.00;;;2.85;;
29568;SDS011;16501;51.462;14.346;2022-09-01T09:10:57;6.07;;;2.75;;
29568;SDS011;16501;51.462;14.346;2022-09-01T09:13:41;8.50;;;2.50;;
29568;SDS011;16501;51.462;14.346;2022-09-01T09:16:26;3.92;;;2.45;;
29568;SDS011;16501;51.462;14.346;2022-09-01T09:19:02;6.47;;;2.67;;
29568;SDS011;16501;51.462;14.346;2022-09-01T09:21:42;8.35;;;2.75;;
29568;SDS011;16501;51.462;14.346;2022-09-01T09:24:22;4.78;;;2.70;;
29568;SDS011;16501;51.462;14.346;2022-09-01T09:26:54;5.10;;;2.28;;
29568;SDS011;16501;51.462;14.346;2022-09-01T09:29:21;3.67;;;2.72;;
29568;SDS011;16501;51.462;14.346;2022-09-01T09:31:48;9.60;;;3.10;;
29568;SDS011;16501;51.462;14.346;2022-09-01T09:34:29;4.18;;;2.47;;
29568;SDS011;16501;51.462;14.346;2022-09-01T09:36:59;7.05;;;2.45;;
29568;SDS011;16501;51.462;14.346;2022-09-01T09:39:26;3.95;;;2.00;;
29568;SDS011;16501;51.462;14.346;2022-09-01T09:42:04;5.38;;;2.58;;
29568;SDS011;16501;51.462;14.346;2022-09-01T09:44:33;8.98;;;2.67;;
29568;SDS011;16501;51.462;14.346;2022-09-01T09:47:07;3.38;;;2.38;;
29568;SDS011;16501;51.462;14.346;2022-09-01T09:49:34;5.28;;;2.05;;
29568;SDS011;16501;51.462;14.346;2022-09-01T09:54:27;3.92;;;2.08;;
29568;SDS011;16501;51.462;14.346;2022-09-01T10:02:33;5.45;;;2.22;;
29568;SDS011;16501;51.462;14.346;2022-09-01T10:05:20;3.63;;;1.98;;
29568;SDS011;16501;51.462;14.346;2022-09-01T10:07:46;5.18;;;1.85;;
29568;SDS011;16501;51.462;14.346;2022-09-01T10:12:53;6.28;;;2.17;;
29568;SDS011;16501;51.462;14.346;2022-09-01T10:15:24;6.72;;;2.13;;
29568;SDS011;16501;51.462;14.346;2022-09-01T10:17:53;6.63;;;2.00;;
29568;SDS011;16501;51.462;14.346;2022-09-01T10:20:23;8.82;;;1.55;;
29568;SDS011;16501;51.462;14.346;2022-09-01T10:22:50;4.55;;;1.77;;
29568;SDS011;16501;51.462;14.346;2022-09-01T10:25:25;4.80;;;1.92;;
29568;SDS011;16501;51.462;14.346;2022-09-01T10:27:57;4.25;;;2.30;;
29568;SDS011;16501;51.462;14.346;2022-09-01T10:30:30;4.07;;;2.35;;
29568;SDS011;16501;51.462;14.346;2022-09-01T10:32:57;5.90;;;2.05;;
29568;SDS011;16501;51.462;14.346;2022-09-01T10:35:34;5.75;;;2.30;;
29568;SDS011;16501;51.462;14.346;2022-09-01T10:38:05;5.47;;;1.65;;
29568;SDS011;16501;51.462;14.346;2022-09-01T10:45:58;5.28;;;1.83;;
29568;SDS011;16501;51.462;14.346;2022-09-01T10:48:28;4.38;;;2.00;;
29568;SDS011;16501;51.462;14.346;2022-09-01T10:53:36;6.82;;;1.73;;
29568;SDS011;16501;51.462;14.346;2022-09-01T10:56:21;13.13;;;1.95;;
29568;SDS011;16501;51.462;14.346;2022-09-01T10:59:10;4.75;;;1.45;;
29568;SDS011;16501;51.462;14.346;2022-09-01T11:04:09;6.32;;;1.58;;
29568;SDS011;16501;51.462;14.346;2022-09-01T11:09:29;2.78;;;1.50;;
29568;SDS011;16501;51.462;14.346;2022-09-01T11:12:07;3.53;;;1.38;;
29568;SDS011;16501;51.462;14.346;2022-09-01T11:14:45;2.88;;;1.48;;
29568;SDS011;16501;51.462;14.346;2022-09-01T11:17:17;3.40;;;1.60;;
29568;SDS011;16501;51.462;14.346;2022-09-01T11:19:52;6.63;;;1.80;;
29568;SDS011;16501;51.462;14.346;2022-09-01T11:25:11;2.40;;;1.40;;
29568;SDS011;16501;51.462;14.346;2022-09-01T11:28:09;4.65;;;1.88;;
29568;SDS011;16501;51.462;14.346;2022-09-01T11:33:52;3.05;;;1.52;;
29568;SDS011;16501;51.462;14.346;2022-09-01T11:36:45;4.25;;;1.60;;
29568;SDS011;16501;51.462;14.346;2022-09-01T11:41:51;3.13;;;1.58;;
29568;SDS011;16501;51.462;14.346;2022-09-01T11:44:41;5.15;;;1.90;;
29568;SDS011;16501;51.462;14.346;2022-09-01T11:47:17;3.92;;;1.40;;
29568;SDS011;16501;51.462;14.346;2022-09-01T11:49:54;3.20;;;1.48;;
29568;SDS011;16501;51.462;14.346;2022-09-01T11:52:25;5.57;;;1.50;;
29568;SDS011;16501;51.462;14.346;2022-09-01T11:57:26;2.40;;;1.42;;
29568;SDS011;16501;51.462;14.346;2022-09-01T11:59:55;2.60;;;1.17;;
29568;SDS011;16501;51.462;14.346;2022-09-01T12:04:53;6.07;;;1.30;;
29568;SDS011;16501;51.462;14.346;2022-09-01T12:07:24;4.78;;;1.35;;
29568;SDS011;16501;51.462;14.346;2022-09-01T12:09:54;6.90;;;1.50;;
29568;SDS011;16501;51.462;14.346;2022-09-01T12:12:36;7.25;;;1.63;;
29568;SDS011;16501;51.462;14.346;2022-09-01T12:17:33;3.10;;;1.10;;
29568;SDS011;16501;51.462;14.346;2022-09-01T12:22:54;3.65;;;1.70;;
29568;SDS011;16501;51.462;14.346;2022-09-01T12:25:21;3.85;;;1.30;;
29568;SDS011;16501;51.462;14.346;2022-09-01T12:27:49;3.92;;;1.10;;
29568;SDS011;16501;51.462;14.346;2022-09-01T12:30:15;4.18;;;1.38;;
29568;SDS011;16501;51.462;14.346;2022-09-01T12:32:51;4.80;;;1.73;;
29568;SDS011;16501;51.462;14.346;2022-09-01T12:35:24;5.95;;;1.50;;
29568;SDS011;16501;51.462;14.346;2022-09-01T12:38:13;3.70;;;1.65;;
29568;SDS011;16501;51.462;14.346;2022-09-01T12:40:44;3.40;;;1.40;;
29568;SDS011;16501;51.462;14.346;2022-09-01T12:43:10;6.40;;;1.83;;
29568;SDS011;16501;51.462;14.346;2022-09-01T12:45:50;2.75;;;1.33;;
29568;SDS011;16501;51.462;14.346;2022-09-01T12:48:29;3.67;;;1.55;;
29568;SDS011;16501;51.462;14.346;2022-09-01T12:51:04;3.45;;;1.20;;
29568;SDS011;16501;51.462;14.346;2022-09-01T12:53:48;5.03;;;1.43;;
29568;SDS011;16501;51.462;14.346;2022-09-01T12:56:19;7.78;;;1.58;;
29568;SDS011;16501;51.462;14.346;2022-09-01T12:58:50;4.18;;;1.50;;
29568;SDS011;16501;51.462;14.346;2022-09-01T13:04:51;3.08;;;1.58;;
29568;SDS011;16501;51.462;14.346;2022-09-01T13:07:17;3.60;;;1.50;;
29568;SDS011;16501;51.462;14.346;2022-09-01T13:09:42;4.55;;;1.65;;
29568;SDS011;16501;51.462;14.346;2022-09-01T13:12:15;5.38;;;1.50;;
29568;SDS011;16501;51.462;14.346;2022-09-01T13:14:42;7.28;;;1.52;;
29568;SDS011;16501;51.462;14.346;2022-09-01T13:17:07;2.05;;;1.27;;
29568;SDS011;16501;51.462;14.346;2022-09-01T13:19:33;2.47;;;1.30;;
29568;SDS011;16501;51.462;14.346;2022-09-01T13:21:59;1.65;;;1.10;;
29568;SDS011;16501;51.462;14.346;2022-09-01T13:24:24;2.72;;;1.13;;
29568;SDS011;16501;51.462;14.346;2022-09-01T13:26:50;2.05;;;1.08;;
29568;SDS011;16501;51.462;14.346;2022-09-01T13:29:22;3.75;;;1.00;;
29568;SDS011;16501;51.462;14.346;2022-09-01T13:31:49;3.08;;;1.13;;
29568;SDS011;16501;51.462;14.346;2022-09-01T13:34:15;2.55;;;0.90;;
29568;SDS011;16501;51.462;14.346;2022-09-01T13:36:41;1.90;;;1.30;;
29568;SDS011;16501;51.462;14.346;2022-09-01T13:39:07;3.10;;;1.05;;
29568;SDS011;16501;51.462;14.346;2022-09-01T13:41:33;6.68;;;1.00;;
29568;SDS011;16501;51.462;14.346;2022-09-01T13:43:59;1.30;;;0.82;;
29568;SDS011;16501;51.462;14.346;2022-09-01T13:46:24;1.17;;;0.80;;
29568;SDS011;16501;51.462;14.346;2022-09-01T13:48:50;2.17;;;0.88;;
29568;SDS011;16501;51.462;14.346;2022-09-01T13:51:25;4.53;;;1.13;;
29568;SDS011;16501;51.462;14.346;2022-09-01T13:53:51;5.82;;;1.30;;
29568;SDS011;16501;51.462;14.346;2022-09-01T13:56:17;3.72;;;1.25;;
29568;SDS011;16501;51.462;14.346;2022-09-01T13:58:42;3.53;;;1.48;;
29568;SDS011;16501;51.462;14.346;2022-09-01T14:01:08;3.15;;;1.20;;
29568;SDS011;16501;51.462;14.346;2022-09-01T14:03:33;1.73;;;0.95;;
29568;SDS011;16501;51.462;14.346;2022-09-01T14:05:59;2.33;;;1.02;;
29568;SDS011;16501;51.462;14.346;2022-09-01T14:08:24;1.55;;;0.90;;
29568;SDS011;16501;51.462;14.346;2022-09-01T14:10:50;2.63;;;1.10;;
29568;SDS011;16501;51.462;14.346;2022-09-01T14:13:17;2.53;;;0.93;;
29568;SDS011;16501;51.462;14.346;2022-09-01T14:15:46;2.15;;;0.90;;
29568;SDS011;16501;51.462;14.346;2022-09-01T14:18:12;1.75;;;0.80;;
29568;SDS011;16501;51.462;14.346;2022-09-01T14:20:41;3.60;;;0.73;;
29568;SDS011;16501;51.462;14.346;2022-09-01T14:23:08;3.60;;;0.80;;
29568;SDS011;16501;51.462;14.346;2022-09-01T14:25:36;3.35;;;1.00;;
29568;SDS011;16501;51.462;14.346;2022-09-01T14:28:08;3.35;;;1.00;;
29568;SDS011;16501;51.462;14.346;2022-09-01T14:30:33;2.35;;;0.90;;
29568;SDS011;16501;51.462;14.346;2022-09-01T14:32:59;5.63;;;1.35;;
29568;SDS011;16501;51.462;14.346;2022-09-01T14:35:27;1.27;;;0.75;;
29568;SDS011;16501;51.462;14.346;2022-09-01T14:37:53;4.57;;;0.90;;
29568;SDS011;16501;51.462;14.346;2022-09-01T14:40:20;2.45;;;0.82;;
29568;SDS011;16501;51.462;14.346;2022-09-01T14:42:48;3.83;;;0.85;;
29568;SDS011;16501;51.462;14.346;2022-09-01T14:45:16;8.55;;;1.15;;
29568;SDS011;16501;51.462;14.346;2022-09-01T14:47:43;1.42;;;0.70;;
29568;SDS011;16501;51.462;14.346;2022-09-01T14:50:10;2.38;;;0.80;;
29568;SDS011;16501;51.462;14.346;2022-09-01T14:52:36;4.97;;;0.88;;
29568;SDS011;16501;51.462;14.346;2022-09-01T14:55:03;2.80;;;1.02;;
29568;SDS011;16501;51.462;14.346;2022-09-01T14:57:30;2.97;;;1.08;;
29568;SDS011;16501;51.462;14.346;2022-09-01T14:59:56;4.65;;;1.25;;
29568;SDS011;16501;51.462;14.346;2022-09-01T15:02:23;3.85;;;0.90;;
29568;SDS011;16501;51.462;14.346;2022-09-01T15:04:49;4.68;;;1.08;;
29568;SDS011;16501;51.462;14.346;2022-09-01T15:07:16;2.15;;;0.90;;
29568;SDS011;16501;51.462;14.346;2022-09-01T15:09:42;2.58;;;0.82;;
29568;SDS011;16501;51.462;14.346;2022-09-01T15:12:08;3.95;;;0.85;;
29568;SDS011;16501;51.462;14.346;2022-09-01T15:14:33;3.97;;;1.35;;
29568;SDS011;16501;51.462;14.346;2022-09-01T15:16:59;1.35;;;0.90;;
29568;SDS011;16501;51.462;14.346;2022-09-01T15:19:25;2.10;;;0.82;;
29568;SDS011;16501;51.462;14.346;2022-09-01T15:21:50;7.13;;;1.20;;
29568;SDS011;16501;51.462;14.346;2022-09-01T15:24:15;4.85;;;0.80;;
29568;SDS011;16501;51.462;14.346;2022-09-01T15:26:42;4.07;;;0.85;;
29568;SDS011;16501;51.462;14.346;2022-09-01T15:29:09;1.27;;;0.88;;
29568;SDS011;16501;51.462;14.346;2022-09-01T15:31:35;5.75;;;0.85;;
29568;SDS011;16501;51.462;14.346;2022-09-01T15:34:02;1.15;;;0.80;;
29568;SDS011;16501;51.462;14.346;2022-09-01T15:36:30;5.75;;;0.70;;
29568;SDS011;16501;51.462;14.346;2022-09-01T15:38:58;2.40;;;0.90;;
29568;SDS011;16501;51.462;14.346;2022-09-01T15:41:25;2.47;;;0.68;;
29568;SDS011;16501;51.462;14.346;2022-09-01T15:43:56;1.13;;;0.68;;
29568;SDS011;16501;51.462;14.346;2022-09-01T15:46:22;2.47;;;0.95;;
29568;SDS011;16501;51.462;14.346;2022-09-01T15:48:55;3.15;;;1.15;;
29568;SDS011;16501;51.462;14.346;2022-09-01T15:53:52;1.50;;;0.70;;
29568;SDS011;16501;51.462;14.346;2022-09-01T15:56:20;3.40;;;0.80;;
29568;SDS011;16501;51.462;14.346;2022-09-01T15:58:46;2.38;;;1.13;;
29568;SDS011;16501;51.462;14.346;2022-09-01T16:01:12;1.65;;;0.85;;
29568;SDS011;16501;51.462;14.346;2022-09-01T16:03:40;3.58;;;0.70;;
29568;SDS011;16501;51.462;14.346;2022-09-01T16:06:05;4.97;;;1.00;;